»·PEaware :: QXE2103 KPDX-KSEA

QXE2103 :: KPDX-KSEA

FLIGHT INFORMATION

Flight Status: Arrived
Operator:
Horizon Air
More flights by this operator :: More flights under this callsign
Pilot: Adlai G. (28854)
Aircraft: DEHAVILLAND DASH 8 400
(DH8D)
More flights by this aircraft type
Origin: KPDX Portland Intl
United States
Destination: KSEA Seattle-Tacoma Intl
United States
More flights between these airports :: More routes between these airports
Route: PTLD1 BTG OLM2
File this flight plan on PilotEdge
Remarks:
Altitude:
(Current/Filed)
14,000ft
Speed:
(Current/Filed)
340kts
Departed: 13-Feb-21 11:09 AM
Arrived: 13-Feb-21 11:40 AM
Distance/Time
Traveled:
112nm/0:31
Distance/Time
To Go:
Arrived

Flight Plot

Page will automatically refresh every two minutes.

Flight plan parsing failed; only flown route is shown


Map Options




Map Legend


Flown Route
Filed Route
Departure Airport
Arrival Airport
Navaid (VOR, NDB)
Fix

Horizontal Profiles

Position Reports

Time Latitude Longitude Heading Altitude Ground
Speed
13-Feb-21 10:26 45.589981 -122.599751 68 37ft 0kts
13-Feb-21 10:27 45.589981 -122.599751 68 37ft 0kts
13-Feb-21 10:28 45.589981 -122.599751 68 37ft 0kts
13-Feb-21 10:29 45.589981 -122.599751 68 37ft 0kts
13-Feb-21 10:30 45.589981 -122.599751 68 37ft 0kts
13-Feb-21 10:31 45.589981 -122.599751 68 37ft 0kts
13-Feb-21 10:32 45.589981 -122.599751 68 37ft 0kts
13-Feb-21 10:33 45.589981 -122.599751 68 37ft 0kts
13-Feb-21 10:34 45.589981 -122.599751 68 37ft 0kts
13-Feb-21 10:35 45.589981 -122.599751 68 37ft 0kts
13-Feb-21 10:36 45.589981 -122.599751 68 37ft 0kts
13-Feb-21 10:37 45.589981 -122.599751 68 37ft 0kts
13-Feb-21 10:38 45.589981 -122.599751 68 37ft 0kts
13-Feb-21 10:39 45.589981 -122.599751 68 37ft 0kts
13-Feb-21 10:40 45.589981 -122.599751 68 37ft 0kts
13-Feb-21 10:41 45.589981 -122.599751 68 37ft 0kts
13-Feb-21 10:42 45.589981 -122.599751 68 37ft 0kts
13-Feb-21 10:43 45.589981 -122.599751 68 37ft 0kts
13-Feb-21 10:44 45.589981 -122.599751 68 37ft 0kts
13-Feb-21 10:45 45.589981 -122.599751 68 37ft 0kts
13-Feb-21 10:46 45.589981 -122.599751 68 37ft 0kts
13-Feb-21 10:47 45.589981 -122.599751 68 37ft 0kts
13-Feb-21 10:48 45.589981 -122.599751 68 37ft 0kts
13-Feb-21 10:49 45.589981 -122.599751 68 37ft 0kts
13-Feb-21 10:50 45.589981 -122.599751 68 37ft 0kts
13-Feb-21 10:51 45.589981 -122.599751 68 37ft 0kts
13-Feb-21 10:52 45.589981 -122.599751 68 37ft 0kts
13-Feb-21 10:53 45.589981 -122.599751 68 37ft 0kts
13-Feb-21 10:54 45.589981 -122.599751 68 37ft 0kts
13-Feb-21 10:55 45.589981 -122.599751 68 37ft 0kts
13-Feb-21 10:56 45.589931 -122.599920 65 37ft 2kts
13-Feb-21 10:57 45.589342 -122.600535 341 37ft 3kts
13-Feb-21 10:58 45.589167 -122.600257 299 37ft 0kts
13-Feb-21 10:59 45.589167 -122.600257 299 37ft 0kts
13-Feb-21 11:00 45.589167 -122.600257 299 37ft 0kts
13-Feb-21 11:01 45.589167 -122.600257 299 37ft 0kts
13-Feb-21 11:02 45.589173 -122.600270 299 37ft 0kts
13-Feb-21 11:03 45.589900 -122.601776 349 37ft 8kts
13-Feb-21 11:04 45.592027 -122.598640 48 37ft 14kts
13-Feb-21 11:05 45.593565 -122.597749 300 37ft 6kts
13-Feb-21 11:06 45.594593 -122.597320 46 37ft 0kts
13-Feb-21 11:07 45.595080 -122.596347 109 37ft 2kts
13-Feb-21 11:08 45.586700 -122.565434 90 1125ft 136kts
13-Feb-21 11:09 45.599755 -122.502815 75 3351ft 181kts
13-Feb-21 11:10 45.619208 -122.433017 75 6178ft 189kts
13-Feb-21 11:11 45.661874 -122.382828 353 8250ft 262kts
13-Feb-21 11:12 45.731847 -122.423328 328 10549ft 274kts
13-Feb-21 11:13 45.799869 -122.469213 326 12945ft 259kts
13-Feb-21 11:14 45.864570 -122.515702 326 13991ft 278kts
13-Feb-21 11:15 45.938772 -122.568473 327 14003ft 313kts
13-Feb-21 11:16 46.018757 -122.625622 327 13994ft 327kts
13-Feb-21 11:17 46.102551 -122.680615 339 13977ft 336kts
13-Feb-21 11:18 46.195074 -122.703305 344 13981ft 337kts
13-Feb-21 11:19 46.287814 -122.726910 344 13945ft 340kts
13-Feb-21 11:20 46.380611 -122.750263 345 13930ft 337kts
13-Feb-21 11:21 46.472251 -122.773754 345 14005ft 336kts
13-Feb-21 11:22 46.564679 -122.797092 345 14004ft 338kts
13-Feb-21 11:24 46.657395 -122.820961 345 13980ft 339kts
13-Feb-21 11:25 46.750818 -122.844866 346 13908ft 343kts
13-Feb-21 11:26 46.844962 -122.869184 346 12910ft 347kts
13-Feb-21 11:27 46.938125 -122.892784 349 12006ft 328kts
13-Feb-21 11:28 47.017159 -122.845431 41 11607ft 307kts
13-Feb-21 11:29 47.080297 -122.761543 40 10958ft 307kts
13-Feb-21 11:30 47.145394 -122.681626 40 10160ft 303kts
13-Feb-21 11:31 47.166027 -122.577974 107 8951ft 271kts
13-Feb-21 11:32 47.150442 -122.470106 106 7451ft 264kts
13-Feb-21 11:33 47.134140 -122.372681 76 6259ft 235kts
13-Feb-21 11:34 47.184096 -122.322058 13 5676ft 231kts
13-Feb-21 11:35 47.248189 -122.314256 3 4443ft 229kts
13-Feb-21 11:36 47.306072 -122.312864 3 3254ft 178kts
13-Feb-21 11:37 47.348199 -122.311469 1 2370ft 140kts
13-Feb-21 11:38 47.386350 -122.311010 357 1552ft 147kts
13-Feb-21 11:38 47.419934 -122.311995 0 843ft 141kts
13-Feb-21 11:40 47.453179 -122.310560 28 440ft 9kts
13-Feb-21 11:41 47.453871 -122.310000 28 440ft 0kts
13-Feb-21 11:41 47.455277 -122.308836 29 440ft 14kts
13-Feb-21 11:43 47.455366 -122.306559 142 440ft 3kts
13-Feb-21 11:43 47.451611 -122.306267 180 440ft 26kts
13-Feb-21 11:45 47.447024 -122.305641 182 440ft 10kts
13-Feb-21 11:45 47.445008 -122.305455 97 440ft 6kts
13-Feb-21 11:46 47.445395 -122.304598 49 440ft 0kts
13-Feb-21 11:47 47.445395 -122.304598 49 440ft 0kts
13-Feb-21 11:48 47.445395 -122.304598 49 440ft 0kts
13-Feb-21 11:49 47.445395 -122.304598 49 440ft 0kts
13-Feb-21 11:50 47.445395 -122.304598 49 440ft 0kts
13-Feb-21 11:51 47.445395 -122.304598 49 440ft 0kts
13-Feb-21 11:52 47.445395 -122.304598 49 440ft 0kts
13-Feb-21 11:53 47.445395 -122.304598 49 440ft 0kts

Navigation Log

Ident Type
Flight plan parsing failed, navigation log unavailable